Time;durP1;ratioP1;P1;durP2;ratioP2;P2;SDS_P1;SDS_P2;PMS_P1;PMS_P2;Temp;Humidity;BMP_temperature;BMP_pressure;BME280_temperature;BME280_humidity;BME280_pressure;Samples;Min_cycle;Max_cycle;Signal;HPM_P1;HPM_P2
2023/11/20 00:00:50;;;;;;;15.07;3.40;;;;;;;9.35;75.58;95409.59;5068557;28;20209;-80
2023/11/20 00:03:15;;;;;;;11.13;2.83;;;;;;;9.32;74.97;95415.06;5062864;28;20255;-80
2023/11/20 00:05:41;;;;;;;11.63;2.40;;;;;;;9.25;75.31;95428.75;5072576;28;20611;-78
2023/11/20 00:08:07;;;;;;;10.90;2.40;;;;;;;9.23;75.23;95405.56;5069926;28;20181;-81
2023/11/20 00:10:32;;;;;;;21.43;3.20;;;;;;;9.27;74.47;95422.44;5051233;28;20219;-80
2023/11/20 00:12:58;;;;;;;16.00;2.53;;;;;;;9.31;74.46;95421.22;5046537;28;20568;-81
2023/11/20 00:15:23;;;;;;;13.60;2.50;;;;;;;9.32;74.28;95415.06;5072261;28;20188;-78
2023/11/20 00:17:48;;;;;;;13.20;3.00;;;;;;;9.45;73.73;95414.72;5066422;28;20233;-81
2023/11/20 00:20:13;;;;;;;12.60;2.63;;;;;;;9.48;73.67;95416.25;5066513;28;20213;-81
2023/11/20 00:22:39;;;;;;;13.63;2.53;;;;;;;9.42;73.90;95422.00;5068493;28;20202;-77
2023/11/20 00:25:04;;;;;;;12.63;2.83;;;;;;;9.30;74.85;95416.19;5050159;28;20194;-78
2023/11/20 00:27:29;;;;;;;11.73;2.50;;;;;;;9.35;74.24;95419.16;5051380;28;20185;-77
2023/11/20 00:29:55;;;;;;;14.60;2.40;;;;;;;9.34;74.71;95422.69;5042067;28;20658;-81
2023/11/20 00:32:21;;;;;;;12.40;2.60;;;;;;;9.35;74.32;95419.16;5069775;28;20204;-81
2023/11/20 00:34:46;;;;;;;14.27;3.00;;;;;;;9.46;74.59;95413.81;5066245;28;20835;-81
2023/11/20 00:37:11;;;;;;;12.83;2.77;;;;;;;9.43;74.66;95410.66;5063012;28;20205;-81
2023/11/20 00:39:37;;;;;;;24.33;5.60;;;;;;;9.42;74.39;95415.03;5060530;28;20185;-81
2023/11/20 00:42:02;;;;;;;16.57;3.03;;;;;;;9.35;74.72;95414.78;5042881;28;20201;-81
2023/11/20 00:44:28;;;;;;;13.27;2.47;;;;;;;9.54;74.90;95418.25;5065346;28;20279;-79
2023/11/20 00:46:54;;;;;;;14.83;2.60;;;;;;;9.58;74.67;95411.81;5046801;28;20399;-80
2023/11/20 00:49:19;;;;;;;17.33;3.33;;;;;;;9.51;75.18;95408.97;5065463;28;20222;-79
2023/11/20 00:51:44;;;;;;;12.50;2.33;;;;;;;9.59;75.09;95410.84;5070325;28;20231;-81
2023/11/20 00:54:11;;;;;;;11.13;2.87;;;;;;;9.52;75.58;95414.97;5046602;28;20604;-80
2023/11/20 00:56:36;;;;;;;14.93;2.93;;;;;;;9.62;74.77;95415.75;5044707;28;20250;-81
2023/11/20 00:59:02;;;;;;;13.53;2.63;;;;;;;9.73;74.28;95418.16;5061154;28;20226;-80
2023/11/20 01:01:27;;;;;;;8.10;2.50;;;;;;;9.73;74.66;95419.94;5048043;28;20206;-80
2023/11/20 01:03:52;;;;;;;14.83;2.57;;;;;;;9.65;75.23;95423.25;5046320;28;20190;-81
2023/11/20 01:06:18;;;;;;;14.43;2.80;;;;;;;9.56;75.71;95426.72;5042742;28;20182;-80
2023/11/20 01:08:43;;;;;;;13.53;3.20;;;;;;;9.77;75.10;95423.88;5065493;28;20238;-81
2023/11/20 01:11:09;;;;;;;19.07;2.77;;;;;;;9.91;74.69;95423.38;5047242;28;20245;-78
2023/11/20 01:13:35;;;;;;;16.50;2.60;;;;;;;9.85;75.08;95426.53;5046432;28;20193;-81
2023/11/20 01:16:01;;;;;;;13.63;2.50;;;;;;;9.90;75.06;95434.72;5067716;28;20272;-81
2023/11/20 01:18:26;;;;;;;13.30;2.50;;;;;;;9.94;75.17;95431.66;5050293;28;20278;-80
2023/11/20 01:20:51;;;;;;;17.80;3.90;;;;;;;9.84;76.26;95432.69;5063254;28;20686;-79
2023/11/20 01:23:16;;;;;;;14.97;2.90;;;;;;;9.88;75.82;95427.06;5048025;28;20646;-79
2023/11/20 01:25:42;;;;;;;17.20;2.70;;;;;;;9.71;76.31;95422.66;5065428;28;20185;-78
2023/11/20 01:28:07;;;;;;;12.13;2.83;;;;;;;9.84;76.35;95420.53;5049877;28;20190;-79
2023/11/20 01:30:32;;;;;;;11.67;3.00;;;;;;;9.77;76.60;95434.22;5063737;28;20185;-79
2023/11/20 01:32:58;;;;;;;11.50;2.43;;;;;;;9.79;76.66;95435.72;5065524;28;20198;-78
2023/11/20 01:35:23;;;;;;;11.93;2.40;;;;;;;9.93;76.34;95435.22;5062244;28;20189;-78
2023/11/20 01:37:48;;;;;;;10.17;2.23;;;;;;;9.79;77.12;95427.13;5059903;28;20296;-78
2023/11/20 01:40:14;;;;;;;12.03;2.83;;;;;;;9.85;77.30;95429.13;5066914;28;20205;-79
2023/11/20 01:42:39;;;;;;;18.57;4.00;;;;;;;9.89;77.07;95412.31;5070811;28;20204;-79
2023/11/20 01:45:07;;;;;;;16.27;2.90;;;;;;;9.91;77.07;95426.78;5048864;28;20194;-79
2023/11/20 01:47:35;;;;;;;15.20;2.70;;;;;;;9.84;77.10;95425.72;5054193;28;20185;-78
2023/11/20 01:50:00;;;;;;;12.57;2.40;;;;;;;10.01;76.70;95423.31;5043167;28;20185;-78
2023/11/20 01:52:25;;;;;;;17.33;2.60;;;;;;;9.89;77.00;95417.50;5071636;28;20261;-79
2023/11/20 01:54:52;;;;;;;13.00;3.10;;;;;;;9.89;77.12;95414.91;5064239;28;20182;-79
2023/11/20 01:57:17;;;;;;;17.20;2.53;;;;;;;9.82;77.65;95411.28;5046476;28;20214;-78
2023/11/20 01:59:43;;;;;;;16.93;3.20;;;;;;;9.99;76.98;95402.72;5045032;28;20200;-78
2023/11/20 02:02:09;;;;;;;10.23;2.10;;;;;;;9.91;77.42;95397.44;5047158;28;20212;-78
2023/11/20 02:04:35;;;;;;;17.10;3.40;;;;;;;9.91;77.58;95395.66;5062325;28;20196;-79
2023/11/20 02:07:01;;;;;;;8.70;2.00;;;;;;;10.12;76.77;95403.16;5066395;28;20194;-79
2023/11/20 02:09:27;;;;;;;11.77;2.60;;;;;;;10.15;76.60;95394.25;5045489;28;20275;-77
2023/11/20 02:11:52;;;;;;;11.53;2.43;;;;;;;10.02;77.03;95399.00;5044170;28;20247;-78
2023/11/20 02:14:18;;;;;;;11.53;2.40;;;;;;;9.91;77.04;95389.66;5063558;28;20244;-79
2023/11/20 02:16:43;;;;;;;10.83;2.57;;;;;;;9.89;77.11;95382.03;5073036;28;20197;-78
2023/11/20 02:19:13;;;;;;;16.50;3.53;;;;;;;10.07;76.93;95388.97;5066506;28;20209;-79
2023/11/20 02:21:38;;;;;;;17.23;2.80;;;;;;;10.08;76.95;95385.44;5067507;28;20679;-79
2023/11/20 02:24:04;;;;;;;13.37;2.63;;;;;;;10.03;77.39;95385.06;5065131;28;20193;-79
2023/11/20 02:26:32;;;;;;;10.27;2.93;;;;;;;10.12;77.26;95397.13;5071232;28;20220;-78
2023/11/20 02:29:10;;;;;;;10.10;2.87;;;;;;;10.13;77.21;95393.56;5072148;28;20189;-79
2023/11/20 02:31:35;;;;;;;16.53;3.40;;;;;;;10.18;76.94;95392.19;5057799;28;20210;-79
2023/11/20 02:34:00;;;;;;;11.07;2.50;;;;;;;10.00;77.16;95385.38;5048168;28;20208;-79
2023/11/20 02:36:26;;;;;;;17.03;3.20;;;;;;;10.12;76.78;95392.75;5049575;28;20204;-79
2023/11/20 02:38:51;;;;;;;11.87;2.30;;;;;;;10.09;76.72;95387.06;5063977;28;20271;-78
2023/11/20 02:41:16;;;;;;;15.93;3.57;;;;;;;10.11;76.96;95390.31;5073650;28;20209;-78
2023/11/20 02:43:42;;;;;;;10.17;2.93;;;;;;;10.18;76.78;95392.19;5067962;28;20197;-79
2023/11/20 02:46:07;;;;;;;13.57;2.47;;;;;;;10.04;76.64;95389.28;5046414;28;20194;-78
2023/11/20 02:48:32;;;;;;;12.80;2.60;;;;;;;10.06;76.00;95379.56;5048650;28;20635;-78
2023/11/20 02:50:58;;;;;;;10.90;2.77;;;;;;;9.97;75.91;95376.06;5044092;28;20210;-80
2023/11/20 02:53:23;;;;;;;15.10;2.10;;;;;;;10.03;74.86;95372.91;5071629;28;20189;-78
2023/11/20 02:55:50;;;;;;;9.63;2.13;;;;;;;10.12;74.75;95376.38;5043909;28;20181;-79
2023/11/20 02:58:15;;;;;;;15.73;2.73;;;;;;;9.99;75.44;95376.78;5064800;28;20200;-79
2023/11/20 03:00:41;;;;;;;9.73;2.10;;;;;;;10.09;74.94;95374.09;5066728;28;20177;-79
2023/11/20 03:03:06;;;;;;;11.47;2.40;;;;;;;10.05;74.80;95380.53;5049685;28;20192;-79
2023/11/20 03:05:34;;;;;;;9.73;2.17;;;;;;;9.97;75.14;95377.84;5065611;28;20211;-79
2023/11/20 03:07:59;;;;;;;13.70;2.70;;;;;;;9.94;74.87;95372.00;5069834;28;20178;-80
2023/11/20 03:10:26;;;;;;;10.10;2.40;;;;;;;9.89;75.24;95369.06;5064212;28;20221;-80
2023/11/20 03:12:51;;;;;;;10.80;3.23;;;;;;;9.94;75.23;95361.63;5050314;28;20567;-79
2023/11/20 03:15:16;;;;;;;11.93;2.10;;;;;;;9.83;75.63;95359.25;5067056;28;20195;-80
2023/11/20 03:17:42;;;;;;;13.00;2.23;;;;;;;9.76;75.56;95360.81;5055130;28;20211;-79
2023/11/20 03:20:08;;;;;;;13.60;3.23;;;;;;;9.73;75.51;95355.94;5063238;28;20300;-79
2023/11/20 03:22:34;;;;;;;11.33;2.90;;;;;;;9.85;75.55;95359.13;5048527;28;20218;-78
2023/11/20 03:24:59;;;;;;;9.07;2.20;;;;;;;9.80;75.96;95362.13;5045573;28;20695;-79
2023/11/20 03:27:25;;;;;;;14.40;2.47;;;;;;;9.84;75.53;95353.13;5070724;28;20177;-79
2023/11/20 03:29:50;;;;;;;8.73;2.13;;;;;;;9.89;75.74;95357.84;5066428;28;20556;-79
2023/11/20 03:32:15;;;;;;;15.07;2.40;;;;;;;9.77;76.19;95357.25;5046741;28;20217;-78
2023/11/20 03:34:41;;;;;;;14.93;2.37;;;;;;;9.76;76.24;95334.88;5061871;28;20531;-79
2023/11/20 03:37:06;;;;;;;12.87;2.70;;;;;;;9.81;76.04;95343.03;5060876;28;20194;-79
2023/11/20 03:39:32;;;;;;;14.00;2.87;;;;;;;9.81;76.25;95347.41;5064866;28;20185;-80
2023/11/20 03:41:57;;;;;;;13.23;2.33;;;;;;;9.69;76.62;95344.19;5041164;28;20217;-79
2023/11/20 03:44:22;;;;;;;9.33;2.03;;;;;;;9.65;76.68;95337.69;5062991;28;20238;-78
2023/11/20 03:46:47;;;;;;;14.20;2.10;;;;;;;9.79;76.08;95336.34;5062080;28;20715;-78
2023/11/20 03:49:13;;;;;;;12.97;2.37;;;;;;;9.78;76.53;95335.53;5045219;28;20290;-79
2023/11/20 03:51:38;;;;;;;11.03;2.13;;;;;;;9.70;77.05;95327.69;5067664;28;20240;-78
2023/11/20 03:54:03;;;;;;;14.63;3.23;;;;;;;9.58;78.13;95329.69;5064630;28;20556;-79
2023/11/20 03:56:29;;;;;;;10.90;2.37;;;;;;;9.55;79.28;95335.16;5045684;28;20569;-78
2023/11/20 03:58:54;;;;;;;9.80;2.20;;;;;;;9.35;80.25;95329.25;5063994;28;20209;-79
2023/11/20 04:01:19;;;;;;;11.17;2.20;;;;;;;9.44;80.52;95337.13;5066290;28;20209;-78
2023/11/20 04:03:45;;;;;;;12.47;2.40;;;;;;;9.42;80.80;95326.09;5062115;28;20193;-78
2023/11/20 04:06:10;;;;;;;8.00;2.57;;;;;;;9.51;81.02;95325.22;5066486;28;20291;-79
2023/11/20 04:08:37;;;;;;;14.33;2.53;;;;;;;9.43;81.50;95332.91;5064589;28;20192;-80
2023/11/20 04:11:02;;;;;;;13.63;2.10;;;;;;;9.32;81.85;95323.56;5046987;28;20801;-79
2023/11/20 04:13:28;;;;;;;11.07;2.90;;;;;;;9.27;82.87;95336.13;5063481;28;20273;-78
2023/11/20 04:15:54;;;;;;;11.27;2.30;;;;;;;9.23;84.48;95327.84;5064681;28;20623;-79
2023/11/20 04:18:19;;;;;;;12.00;2.77;;;;;;;9.28;85.12;95341.19;5048850;28;20216;-79
2023/11/20 04:20:44;;;;;;;11.23;2.97;;;;;;;9.26;85.68;95330.13;5043715;28;20185;-79
2023/11/20 04:23:09;;;;;;;10.97;2.47;;;;;;;9.21;86.33;95323.78;5062696;28;20193;-80
2023/11/20 04:25:35;;;;;;;12.80;2.60;;;;;;;9.21;85.91;95321.19;5063489;28;20192;-77
2023/11/20 04:28:00;;;;;;;10.57;2.23;;;;;;;9.23;86.13;95322.66;5040784;28;20197;-79
2023/11/20 04:30:26;;;;;;;12.77;2.43;;;;;;;9.15;84.91;95325.16;5038826;28;20186;-79
2023/11/20 04:32:51;;;;;;;11.87;2.40;;;;;;;9.09;84.28;95316.16;5047185;28;20208;-78
2023/11/20 04:35:16;;;;;;;11.83;2.27;;;;;;;9.22;83.92;95336.56;5063542;28;20185;-80
2023/11/20 04:37:42;;;;;;;14.30;2.83;;;;;;;9.30;82.79;95330.69;5047989;28;21002;-80
2023/11/20 04:40:08;;;;;;;11.40;2.53;;;;;;;9.25;82.67;95338.06;5062154;28;20182;-79
2023/11/20 04:42:33;;;;;;;11.37;2.70;;;;;;;9.21;82.20;95331.53;5053693;28;20221;-78
2023/11/20 04:44:58;;;;;;;12.47;2.10;;;;;;;9.31;81.69;95338.31;5064063;28;20197;-80
2023/11/20 04:47:24;;;;;;;14.80;2.80;;;;;;;9.40;80.88;95341.00;5060737;28;20181;-78
2023/11/20 04:49:49;;;;;;;14.87;2.10;;;;;;;9.40;80.16;95338.41;5045555;28;20206;-78
2023/11/20 04:52:15;;;;;;;13.20;2.53;;;;;;;9.51;79.79;95335.59;5035966;28;20238;-79
2023/11/20 04:54:40;;;;;;;12.97;3.13;;;;;;;9.54;79.71;95340.47;5038767;28;20190;-78
2023/11/20 04:57:05;;;;;;;10.47;2.33;;;;;;;9.44;80.11;95337.13;5043891;28;20201;-79
2023/11/20 04:59:31;;;;;;;10.63;2.30;;;;;;;9.50;80.29;95341.75;5061738;28;20197;-78
2023/11/20 05:01:56;;;;;;;15.10;2.63;;;;;;;9.46;80.67;95332.63;5066319;28;20738;-79
2023/11/20 05:04:23;;;;;;;7.90;2.10;;;;;;;9.52;79.85;95335.44;5059427;28;20189;-80
2023/11/20 05:06:48;;;;;;;12.07;3.03;;;;;;;9.51;80.07;95335.59;5039769;28;20573;-79
2023/11/20 05:09:13;;;;;;;6.03;2.17;;;;;;;9.32;79.98;95334.75;5047274;28;20181;-79
2023/11/20 05:11:41;;;;;;;10.37;1.97;;;;;;;9.47;79.31;95334.25;5059824;28;20701;-80
2023/11/20 05:14:06;;;;;;;13.87;2.70;;;;;;;9.43;78.83;95336.31;5058001;28;20193;-80
2023/11/20 05:16:31;;;;;;;8.97;2.17;;;;;;;9.60;78.12;95337.31;5049732;28;20193;-79
2023/11/20 05:18:57;;;;;;;16.70;2.90;;;;;;;9.51;78.21;95340.78;5065840;28;20863;-80
2023/11/20 05:21:22;;;;;;;11.33;2.80;;;;;;;9.50;78.22;95337.38;5041662;28;20324;-80
2023/11/20 05:23:48;;;;;;;8.50;2.03;;;;;;;9.52;78.15;95337.22;5043664;28;20638;-80
2023/11/20 05:26:20;;;;;;;11.73;3.27;;;;;;;9.61;77.95;95346.72;5063386;28;20184;-79
2023/11/20 05:28:45;;;;;;;15.10;2.60;;;;;;;9.54;77.54;95346.50;5048501;28;20189;-81
2023/11/20 05:31:13;;;;;;;15.17;2.57;;;;;;;9.53;77.56;95344.03;5041931;28;20302;-80
2023/11/20 05:33:38;;;;;;;9.60;2.83;;;;;;;9.49;76.58;95335.75;5062561;28;20193;-80
2023/11/20 05:36:04;;;;;;;9.20;2.77;;;;;;;9.60;76.40;95345.09;5059601;28;20197;-80
2023/11/20 05:38:30;;;;;;;6.27;2.27;;;;;;;9.47;76.83;95336.84;5056912;28;20240;-80
2023/11/20 05:40:55;;;;;;;14.23;3.33;;;;;;;9.47;76.12;95340.25;5062244;28;20231;-80
2023/11/20 05:43:21;;;;;;;14.13;2.63;;;;;;;9.55;76.05;95342.13;5044745;28;20193;-79
2023/11/20 05:45:46;;;;;;;9.33;2.33;;;;;;;9.69;75.82;95336.41;5057894;28;20972;-79
2023/11/20 05:48:12;;;;;;;7.03;2.40;;;;;;;9.70;75.27;95345.00;5044315;28;20181;-80
2023/11/20 05:50:37;;;;;;;12.73;2.80;;;;;;;9.42;75.73;95336.47;5049221;28;20209;-80
2023/11/20 05:53:03;;;;;;;14.10;2.60;;;;;;;9.51;74.90;95335.59;5084452;28;20559;-79
2023/11/20 05:55:29;;;;;;;10.77;2.10;;;;;;;9.53;74.38;95339.66;5051856;28;20249;-80
2023/11/20 05:57:56;;;;;;;12.03;2.50;;;;;;;9.56;74.52;95336.78;5067901;28;20212;-80
2023/11/20 06:00:22;;;;;;;13.50;3.07;;;;;;;9.58;74.21;95337.47;5067661;28;20226;-81
2023/11/20 06:02:47;;;;;;;13.73;2.60;;;;;;;9.48;74.64;95328.13;5053382;28;20209;-81
2023/11/20 06:05:12;;;;;;;7.73;2.03;;;;;;;9.28;75.05;95327.41;5040143;28;20668;-79
2023/11/20 06:07:38;;;;;;;10.53;1.93;;;;;;;9.57;74.18;95325.47;5067961;28;20209;-81
2023/11/20 06:10:03;;;;;;;9.40;2.10;;;;;;;9.56;74.50;95338.56;5060804;28;20198;-80
2023/11/20 06:12:29;;;;;;;11.50;2.63;;;;;;;9.22;75.46;95321.03;5044199;28;20205;-80
2023/11/20 06:14:54;;;;;;;10.63;2.33;;;;;;;9.42;75.32;95326.91;5045668;28;20213;-82
2023/11/20 06:17:20;;;;;;;13.37;2.20;;;;;;;9.36;75.21;95328.34;5069540;28;20205;-81
2023/11/20 06:19:46;;;;;;;8.73;2.40;;;;;;;9.52;74.29;95326.84;5037705;28;20186;-82
2023/11/20 06:22:11;;;;;;;10.60;2.37;;;;;;;9.38;75.49;95324.78;5062400;28;20683;-82
2023/11/20 06:24:37;;;;;;;12.37;2.77;;;;;;;9.45;75.18;95330.97;5045311;28;20196;-80
2023/11/20 06:27:03;;;;;;;10.77;2.30;;;;;;;9.45;74.71;95328.38;5057337;28;20197;-82
2023/11/20 06:29:28;;;;;;;12.53;2.83;;;;;;;9.41;75.50;95330.47;5052046;28;20189;-80
2023/11/20 06:31:54;;;;;;;11.30;2.70;;;;;;;9.21;76.35;95332.34;5046275;28;20217;-82
2023/11/20 06:34:19;;;;;;;11.87;2.67;;;;;;;9.49;75.54;95342.69;5046479;28;20185;-81
2023/11/20 06:36:45;;;;;;;14.23;2.27;;;;;;;9.38;76.24;95350.69;5048373;28;20201;-81
2023/11/20 06:39:10;;;;;;;9.03;3.17;;;;;;;9.37;76.67;95336.91;5039084;28;20214;-80
2023/11/20 06:41:37;;;;;;;7.20;2.07;;;;;;;9.43;76.41;95332.91;5037620;28;20248;-80
2023/11/20 06:44:04;;;;;;;9.40;3.80;;;;;;;9.27;76.96;95338.72;5066349;28;20205;-82
2023/11/20 06:46:30;;;;;;;9.50;2.13;;;;;;;9.22;77.35;95346.13;5047313;28;20194;-81
2023/11/20 06:48:55;;;;;;;20.60;6.80;;;;;;;9.38;77.01;95341.13;5049891;28;20189;-82
2023/11/20 06:51:21;;;;;;;13.10;2.87;;;;;;;8.98;78.47;95346.63;5046748;28;20197;-82
2023/11/20 06:53:46;;;;;;;10.97;4.10;;;;;;;9.25;78.27;95349.22;5031973;28;20277;-81
2023/11/20 06:56:18;;;;;;;11.70;2.43;;;;;;;9.14;79.31;95354.63;5061926;28;20182;-80
2023/11/20 06:58:44;;;;;;;10.00;2.43;;;;;;;9.12;79.13;95348.75;5046885;28;20212;-81
2023/11/20 07:01:09;;;;;;;16.73;4.73;;;;;;;9.21;78.80;95350.50;5064433;28;20266;-80
2023/11/20 07:03:35;;;;;;;24.93;10.90;;;;;;;9.25;79.16;95338.06;5047628;28;20572;-81
2023/11/20 07:06:01;;;;;;;12.60;3.17;;;;;;;9.34;78.15;95342.38;5051123;28;20284;-81
2023/11/20 07:08:27;;;;;;;14.50;3.20;;;;;;;9.31;77.93;95340.06;5041194;28;20252;-80
2023/11/20 07:10:52;;;;;;;7.43;2.33;;;;;;;9.30;78.27;95341.84;5046826;28;20202;-84
2023/11/20 07:13:18;;;;;;;15.37;2.57;;;;;;;9.29;77.82;95345.41;5046082;28;20208;-80
2023/11/20 07:15:43;;;;;;;11.47;2.30;;;;;;;9.42;77.10;95350.25;5064948;28;20193;-80
2023/11/20 07:18:08;;;;;;;11.43;2.67;;;;;;;9.39;77.54;95353.13;5045993;28;20206;-79
2023/11/20 07:20:35;;;;;;;11.73;1.80;;;;;;;9.40;76.75;95349.56;5049582;28;20194;-79
2023/11/20 07:23:03;;;;;;;11.53;2.30;;;;;;;9.50;76.12;95354.69;5046625;28;20192;-79
2023/11/20 07:25:33;;;;;;;12.80;2.50;;;;;;;9.62;75.85;95353.53;5065700;28;20745;-78
2023/11/20 07:28:00;;;;;;;7.57;1.87;;;;;;;9.54;75.86;95353.44;5046196;28;20178;-78
2023/11/20 07:30:25;;;;;;;7.10;1.53;;;;;;;9.65;75.53;95353.25;5070162;28;20563;-78
2023/11/20 07:32:51;;;;;;;14.27;2.93;;;;;;;9.78;74.82;95355.47;5046698;28;20250;-82
2023/11/20 07:35:16;;;;;;;15.47;2.97;;;;;;;9.70;74.60;95355.38;5047396;28;20280;-78
2023/11/20 07:37:42;;;;;;;9.70;2.10;;;;;;;9.63;74.52;95365.56;5062485;28;20249;-79
2023/11/20 07:40:10;;;;;;;11.10;2.27;;;;;;;9.77;74.16;95359.84;5045672;28;20556;-78
2023/11/20 07:42:36;;;;;;;11.57;2.47;;;;;;;9.75;73.48;95371.34;5056312;28;20214;-79
2023/11/20 07:45:02;;;;;;;11.67;1.90;;;;;;;9.78;73.19;95369.25;5040408;28;20258;-79
2023/11/20 07:47:27;;;;;;;8.47;2.00;;;;;;;9.75;73.01;95368.75;5061733;28;20220;-79
2023/11/20 07:49:54;;;;;;;7.50;1.80;;;;;;;9.94;72.87;95366.81;5046139;28;20235;-78
2023/11/20 07:52:21;;;;;;;9.93;2.10;;;;;;;9.98;72.06;95369.91;5066770;28;20221;-78
2023/11/20 07:54:46;;;;;;;7.73;2.40;;;;;;;10.04;71.62;95364.16;5052031;28;20268;-78
2023/11/20 07:57:13;;;;;;;7.20;2.40;;;;;;;10.10;72.03;95367.94;5062920;28;20257;-77
2023/11/20 07:59:39;;;;;;;7.87;1.83;;;;;;;10.02;72.09;95371.28;5062204;28;20196;-79
2023/11/20 08:02:05;;;;;;;6.80;2.23;;;;;;;10.09;71.53;95369.72;5064781;28;20228;-78
2023/11/20 08:04:30;;;;;;;7.10;2.13;;;;;;;9.89;71.31;95366.47;5064673;28;20183;-78
2023/11/20 08:06:56;;;;;;;5.87;1.83;;;;;;;9.92;71.51;95371.34;5047937;28;20181;-78
2023/11/20 08:09:21;;;;;;;8.17;2.50;;;;;;;9.90;71.29;95368.09;5065594;28;20178;-77
2023/11/20 08:11:47;;;;;;;7.53;2.03;;;;;;;9.97;71.49;95351.91;5046257;28;20205;-79
2023/11/20 08:14:15;;;;;;;8.43;1.93;;;;;;;10.15;71.20;95358.72;5059977;28;20190;-78
2023/11/20 08:16:41;;;;;;;9.90;1.70;;;;;;;10.08;70.46;95362.91;5051322;28;20177;-79
2023/11/20 08:19:06;;;;;;;7.77;1.67;;;;;;;10.21;70.90;95357.31;5067005;28;20286;-78
2023/11/20 08:21:31;;;;;;;8.93;2.57;;;;;;;10.36;70.27;95353.25;5044206;28;20683;-79
2023/11/20 08:23:57;;;;;;;11.23;1.73;;;;;;;10.06;70.71;95356.22;5044824;28;20197;-77
2023/11/20 08:26:22;;;;;;;8.57;2.27;;;;;;;10.31;70.37;95355.47;5065653;28;20177;-79
2023/11/20 08:28:47;;;;;;;5.40;1.90;;;;;;;10.32;69.96;95351.91;5057754;28;20178;-78
2023/11/20 08:31:13;;;;;;;8.33;2.00;;;;;;;10.35;70.15;95351.63;5067108;28;20209;-78
2023/11/20 08:33:39;;;;;;;7.87;2.30;;;;;;;10.42;69.66;95352.66;5069215;28;20225;-79
2023/11/20 08:36:06;;;;;;;10.07;2.03;;;;;;;10.55;69.83;95356.63;5059594;28;20197;-80
2023/11/20 08:38:32;;;;;;;9.60;5.20;;;;;;;10.58;69.77;95356.31;5061333;28;20675;-83
2023/11/20 08:40:58;;;;;;;7.97;1.77;;;;;;;10.43;69.19;95358.69;5045367;28;20212;-83
2023/11/20 08:43:23;;;;;;;6.97;2.20;;;;;;;10.62;69.53;95357.66;5042668;28;20239;-81
2023/11/20 08:45:49;;;;;;;8.77;2.40;;;;;;;10.63;69.19;95359.28;5045017;28;20194;-78
2023/11/20 08:48:15;;;;;;;8.47;2.33;;;;;;;10.60;69.04;95362.19;5046077;28;20244;-79
2023/11/20 08:50:40;;;;;;;7.37;2.07;;;;;;;10.32;69.59;95364.91;5046824;28;20196;-79
2023/11/20 08:53:06;;;;;;;6.37;1.33;;;;;;;10.21;69.88;95359.91;5068651;28;20647;-80
2023/11/20 08:55:31;;;;;;;8.37;2.50;;;;;;;10.67;69.08;95358.00;5060278;28;20185;-79
2023/11/20 08:57:58;;;;;;;5.20;1.40;;;;;;;10.62;68.95;95358.47;5044953;28;20731;-78
2023/11/20 09:00:24;;;;;;;3.43;1.10;;;;;;;10.46;70.43;95348.78;5059053;28;20226;-79
2023/11/20 09:02:49;;;;;;;3.33;1.30;;;;;;;10.41;70.78;95355.38;5065523;28;20209;-79
2023/11/20 09:05:15;;;;;;;5.60;1.53;;;;;;;10.61;70.57;95343.06;5042174;28;20182;-80
2023/11/20 09:07:43;;;;;;;7.13;1.60;;;;;;;10.73;70.45;95347.03;5048367;28;20585;-79
2023/11/20 09:10:09;;;;;;;5.67;1.60;;;;;;;10.58;70.27;95362.34;5059593;28;20263;-80
2023/11/20 09:12:39;;;;;;;7.87;1.70;;;;;;;10.62;70.43;95362.88;5044371;28;20218;-81
2023/11/20 09:15:06;;;;;;;6.70;1.63;;;;;;;10.55;71.54;95361.84;5043372;28;20280;-79
2023/11/20 09:17:31;;;;;;;6.17;1.73;;;;;;;10.57;71.55;95375.47;5069886;28;20292;-79
2023/11/20 09:19:57;;;;;;;6.47;1.23;;;;;;;10.12;74.00;95366.81;5063122;28;20220;-80
2023/11/20 09:22:25;;;;;;;7.90;1.50;;;;;;;10.01;75.54;95372.25;5043377;28;20741;-79
2023/11/20 09:24:50;;;;;;;7.53;2.40;;;;;;;10.28;76.06;95373.97;5047100;28;20240;-80
2023/11/20 09:27:18;;;;;;;6.43;1.60;;;;;;;10.05;77.63;95367.56;5055439;28;20257;-78
2023/11/20 09:29:44;;;;;;;5.07;1.73;;;;;;;10.04;78.64;95364.16;5074487;28;20263;-80
2023/11/20 09:32:10;;;;;;;4.80;1.50;;;;;;;10.26;78.42;95360.34;5053740;28;20206;-79
2023/11/20 09:34:36;;;;;;;9.37;1.97;;;;;;;10.17;78.82;95348.22;5050968;28;20197;-84
2023/11/20 09:37:01;;;;;;;7.53;1.70;;;;;;;10.40;78.12;95351.16;5052557;28;20206;-79
2023/11/20 09:39:27;;;;;;;6.63;1.70;;;;;;;10.36;78.41;95355.88;5066933;28;20217;-79
2023/11/20 09:41:54;;;;;;;6.30;2.57;;;;;;;10.42;77.47;95341.44;5050660;28;20246;-81
2023/11/20 09:44:23;;;;;;;8.10;1.90;;;;;;;9.85;77.27;95330.59;5061686;28;20184;-79
2023/11/20 09:46:49;;;;;;;6.73;1.33;;;;;;;10.17;76.91;95333.47;5063345;28;20190;-78
2023/11/20 09:49:23;;;;;;;6.20;1.57;;;;;;;10.21;76.24;95334.78;5062892;28;20181;-79
2023/11/20 09:51:49;;;;;;;6.17;1.27;;;;;;;10.33;75.71;95337.97;5063444;28;20628;-78
2023/11/20 09:54:15;;;;;;;10.30;1.63;;;;;;;10.62;75.90;95329.09;5074650;28;20189;-78
2023/11/20 09:56:41;;;;;;;8.40;1.57;;;;;;;10.67;75.55;95345.03;5063364;28;20189;-78
2023/11/20 09:59:07;;;;;;;2.27;1.00;;;;;;;10.32;75.68;95327.75;5064984;28;20202;-79
2023/11/20 10:01:33;;;;;;;3.43;1.17;;;;;;;10.47;75.55;95327.06;5046804;28;20738;-79
2023/11/20 10:03:58;;;;;;;4.63;1.27;;;;;;;10.36;75.37;95327.31;5043701;28;20184;-79
2023/11/20 10:06:25;;;;;;;4.83;1.03;;;;;;;10.49;74.74;95324.31;5040790;28;20197;-79
2023/11/20 10:08:50;;;;;;;3.53;1.20;;;;;;;10.64;74.00;95317.59;5070311;28;20241;-79
2023/11/20 10:11:17;;;;;;;8.13;4.37;;;;;;;10.85;73.40;95319.00;5065941;28;20229;-79
2023/11/20 10:13:42;;;;;;;4.63;1.37;;;;;;;10.44;74.52;95323.97;5068365;28;20189;-80
2023/11/20 10:16:16;;;;;;;4.73;1.47;;;;;;;10.23;75.87;95331.25;5066903;28;20262;-79
2023/11/20 10:18:42;;;;;;;4.53;1.10;;;;;;;10.37;76.51;95318.56;5073914;28;20205;-79
2023/11/20 10:21:08;;;;;;;5.10;0.93;;;;;;;10.08;77.57;95324.00;5052728;28;20655;-79
2023/11/20 10:23:33;;;;;;;4.67;1.23;;;;;;;10.20;77.26;95329.75;5050178;28;20193;-78
2023/11/20 10:26:00;;;;;;;6.33;1.60;;;;;;;10.44;76.20;95329.16;5065205;28;20192;-78
2023/11/20 10:28:25;;;;;;;3.33;1.20;;;;;;;10.57;76.28;95310.56;5059328;28;20200;-78
2023/11/20 10:30:51;;;;;;;5.03;1.00;;;;;;;10.95;75.01;95312.69;5072906;28;20201;-79
2023/11/20 10:33:19;;;;;;;3.57;1.23;;;;;;;11.17;73.82;95307.94;5054168;28;20555;-78
2023/11/20 10:35:46;;;;;;;4.60;1.03;;;;;;;10.99;74.59;95311.44;5052700;28;20205;-80
2023/11/20 10:38:11;;;;;;;4.67;1.80;;;;;;;10.54;75.26;95303.09;5054223;28;20618;-79
2023/11/20 10:40:41;;;;;;;4.37;1.17;;;;;;;10.86;75.14;95300.66;5072381;28;20203;-80
2023/11/20 10:43:07;;;;;;;5.03;1.43;;;;;;;11.19;74.36;95287.78;5067506;28;20638;-80
2023/11/20 10:45:33;;;;;;;3.17;0.97;;;;;;;11.05;74.34;95287.44;5075509;28;20182;-80
2023/11/20 10:47:59;;;;;;;5.17;1.57;;;;;;;11.17;74.16;95274.97;5071012;28;20192;-81
2023/11/20 10:50:25;;;;;;;3.03;1.00;;;;;;;11.17;74.41;95281.94;5054731;28;20190;-85
2023/11/20 10:52:54;;;;;;;4.53;1.30;;;;;;;11.23;73.64;95284.75;5073690;28;20219;-79
2023/11/20 10:55:26;;;;;;;2.27;0.80;;;;;;;10.78;74.52;95280.66;5059353;28;20189;-79
2023/11/20 10:57:51;;;;;;;3.07;1.20;;;;;;;10.63;74.57;95278.78;5050761;28;20233;-80
2023/11/20 11:00:17;;;;;;;5.53;1.43;;;;;;;10.23;75.71;95267.19;5055087;28;20185;-79
2023/11/20 11:02:43;;;;;;;5.20;1.77;;;;;;;10.16;76.03;95264.38;5072482;28;20630;-79
2023/11/20 11:05:10;;;;;;;3.70;1.03;;;;;;;10.32;75.66;95258.47;5068824;28;20209;-80
2023/11/20 11:07:39;;;;;;;3.93;1.03;;;;;;;10.47;75.00;95256.97;5049688;28;20186;-83
2023/11/20 11:10:10;;;;;;;6.83;1.70;;;;;;;10.32;74.81;95261.06;5054895;28;20189;-79
2023/11/20 11:12:42;;;;;;;2.67;1.03;;;;;;;10.45;73.65;95253.72;5071928;28;20210;-80
2023/11/20 11:15:14;;;;;;;5.70;1.90;;;;;;;10.44;73.59;95249.50;5056590;28;20260;-79
2023/11/20 11:18:03;;;;;;;4.87;1.13;;;;;;;10.64;73.38;95264.84;5047202;28;20213;-79
2023/11/20 11:20:41;;;;;;;4.53;1.20;;;;;;;10.87;72.49;95252.13;5065513;28;20193;-79
2023/11/20 11:23:10;;;;;;;3.57;1.30;;;;;;;10.90;72.86;95255.22;5063915;28;20224;-79
2023/11/20 11:25:40;;;;;;;4.03;1.13;;;;;;;10.64;73.05;95246.66;5049896;28;20235;-80
2023/11/20 11:28:08;;;;;;;3.63;1.40;;;;;;;10.86;73.84;95246.09;5071337;28;20202;-80